createdAt,value
2019-01-02T00:02:24.565Z,101792.58
2019-01-02T00:04:52.769Z,101798.64
2019-01-02T00:07:21.363Z,101803.48
2019-01-02T00:09:49.567Z,101798.99
2019-01-02T00:12:18.286Z,101800.00
2019-01-02T00:14:46.499Z,101812.63
2019-01-02T00:17:14.715Z,101814.98
2019-01-02T00:19:42.973Z,101814.38
2019-01-02T00:22:11.183Z,101820.08
2019-01-02T00:24:39.404Z,101803.73
2019-01-02T00:27:07.593Z,101798.77
2019-01-02T00:29:36.074Z,101802.48
2019-01-02T00:32:04.309Z,101810.53
2019-01-02T00:34:32.791Z,101815.98
2019-01-02T00:37:00.983Z,101821.44
2019-01-02T00:39:29.579Z,101817.70
2019-01-02T00:41:57.802Z,101819.55
2019-01-02T00:44:26.401Z,101819.68
2019-01-02T00:46:54.614Z,101817.83
2019-01-02T00:49:23.200Z,101826.89
2019-01-02T00:51:51.387Z,101815.59
2019-01-02T00:54:19.624Z,101823.64
2019-01-02T00:56:47.821Z,101826.37
2019-01-02T00:59:16.402Z,101817.70
2019-01-02T01:01:44.638Z,101817.47
2019-01-02T01:04:13.228Z,101820.69
2019-01-02T01:06:41.420Z,101819.68
2019-01-02T01:09:09.932Z,101820.56
2019-01-02T01:11:38.124Z,101822.80
2019-01-02T01:14:06.712Z,101821.92
2019-01-02T01:16:34.934Z,101821.05
2019-01-02T01:19:03.500Z,101820.08
2019-01-02T01:21:31.741Z,101825.00
2019-01-02T01:24:00.239Z,101841.48
2019-01-02T01:26:28.468Z,101839.36
2019-01-02T01:28:56.686Z,101848.29
2019-01-02T01:31:24.886Z,101850.89
2019-01-02T01:33:53.134Z,101858.58
2019-01-02T01:36:21.608Z,101852.77
2019-01-02T01:38:49.812Z,101863.67
2019-01-02T01:41:18.048Z,101863.80
2019-01-02T01:43:46.432Z,101869.72
2019-01-02T01:46:14.656Z,101865.64
2019-01-02T01:48:43.246Z,101878.38
2019-01-02T01:51:11.459Z,101882.47
2019-01-02T01:53:39.687Z,101885.20
2019-01-02T01:56:08.260Z,101883.84
2019-01-02T01:58:36.506Z,101895.61
2019-01-02T02:01:05.091Z,101891.65
2019-01-02T02:03:33.304Z,101895.61
2019-01-02T02:06:01.530Z,101909.48
2019-01-02T02:08:30.016Z,101901.18
2019-01-02T02:10:58.256Z,101884.31
2019-01-02T02:13:26.444Z,101897.94
2019-01-02T02:15:54.680Z,101897.09
2019-01-02T02:18:22.913Z,101897.58
2019-01-02T02:20:51.480Z,101900.91
2019-01-02T02:23:19.728Z,101894.49
2019-01-02T02:25:47.951Z,101889.16
2019-01-02T02:28:16.164Z,101893.12
2019-01-02T02:30:44.394Z,101910.45
2019-01-02T02:33:12.878Z,101910.53
2019-01-02T02:35:41.474Z,101903.15
2019-01-02T02:38:10.065Z,101912.33
2019-01-02T02:40:38.296Z,101910.96
2019-01-02T02:43:06.514Z,101912.81
2019-01-02T02:45:34.713Z,101912.02
2019-01-02T02:48:03.294Z,101917.77
2019-01-02T02:50:31.904Z,101906.96
2019-01-02T02:53:00.575Z,101911.89
2019-01-02T02:55:29.187Z,101911.05
2019-01-02T02:57:57.385Z,101897.43
2019-01-02T03:00:25.613Z,101890.22
2019-01-02T03:02:53.819Z,101892.95
2019-01-02T03:05:22.051Z,101903.84
2019-01-02T03:07:50.303Z,101908.45
2019-01-02T03:10:18.987Z,101903.84
2019-01-02T03:12:47.483Z,101898.03
2019-01-02T03:15:16.097Z,101897.83
2019-01-02T03:17:44.325Z,101896.46
2019-01-02T03:20:14.939Z,101898.70
2019-01-02T03:22:43.797Z,101913.89
2019-01-02T03:25:13.644Z,101910.08
2019-01-02T03:27:42.134Z,101908.72
2019-01-02T03:30:17.778Z,101926.03
2019-01-02T03:32:46.285Z,101928.23
2019-01-02T03:35:14.968Z,101933.60
2019-01-02T03:37:43.174Z,101931.87
2019-01-02T03:40:12.328Z,101934.97
2019-01-02T03:42:40.527Z,101935.72
2019-01-02T03:45:11.853Z,101933.48
2019-01-02T03:47:40.099Z,101932.64
2019-01-02T03:50:11.671Z,101933.12
2019-01-02T03:52:39.869Z,101930.88
2019-01-02T03:55:09.633Z,101934.97
2019-01-02T03:57:37.829Z,101926.80
2019-01-02T04:00:09.387Z,101911.45
2019-01-02T04:02:37.612Z,101915.98
2019-01-02T04:05:09.107Z,101913.77
2019-01-02T04:07:37.342Z,101929.16
2019-01-02T04:10:13.773Z,101921.34
2019-01-02T04:12:41.990Z,101920.06
2019-01-02T04:15:10.187Z,101915.53
2019-01-02T04:17:38.409Z,101912.81
2019-01-02T04:20:07.863Z,101907.23
2019-01-02T04:22:36.082Z,101899.55
2019-01-02T04:25:04.968Z,101895.55
2019-01-02T04:27:33.176Z,101901.30
2019-01-02T04:30:01.407Z,101900.91
2019-01-02T04:32:29.598Z,101898.94
2019-01-02T04:34:57.813Z,101906.75
2019-01-02T04:37:26.024Z,101911.81
2019-01-02T04:39:54.263Z,101904.15
2019-01-02T04:42:22.460Z,101915.05
2019-01-02T04:44:50.686Z,101915.41
2019-01-02T04:47:18.894Z,101919.13
2019-01-02T04:49:47.116Z,101923.22
2019-01-02T04:52:15.338Z,101930.40
2019-01-02T04:54:43.576Z,101930.52
2019-01-02T04:57:11.779Z,101926.31
2019-01-02T04:59:40.005Z,101929.52
2019-01-02T05:02:08.199Z,101930.40
2019-01-02T05:04:36.387Z,101927.19
2019-01-02T05:07:04.611Z,101927.55
2019-01-02T05:09:32.970Z,101926.67
2019-01-02T05:12:01.233Z,101927.91
2019-01-02T05:14:29.470Z,101919.86
2019-01-02T05:16:57.662Z,101928.91
2019-01-02T05:19:25.878Z,101934.84
2019-01-02T05:21:54.093Z,101935.23
2019-01-02T05:24:22.307Z,101920.73
2019-01-02T05:26:50.531Z,101928.03
2019-01-02T05:29:18.725Z,101928.91
2019-01-02T05:31:46.947Z,101941.53
2019-01-02T05:34:15.169Z,101936.60
2019-01-02T05:36:43.399Z,101936.97
2019-01-02T05:39:11.623Z,101931.03
2019-01-02T05:41:39.841Z,101934.72
2019-01-02T05:44:08.076Z,101942.90
2019-01-02T05:46:36.278Z,101938.45
2019-01-02T05:49:04.534Z,101934.72
2019-01-02T05:51:32.733Z,101940.09
2019-01-02T05:54:00.941Z,101939.81
2019-01-02T05:56:29.145Z,101937.09
2019-01-02T05:58:57.381Z,101937.84
2019-01-02T06:01:25.581Z,101935.72
2019-01-02T06:03:53.785Z,101948.34
2019-01-02T06:06:22.003Z,101951.95
2019-01-02T06:08:50.294Z,101953.31
2019-01-02T06:11:18.517Z,101951.34
2019-01-02T06:13:46.710Z,101947.86
2019-01-02T06:16:14.936Z,101942.30
2019-01-02T06:18:43.143Z,101937.97
2019-01-02T06:21:11.337Z,101936.09
2019-01-02T06:23:39.563Z,101937.84
2019-01-02T06:26:07.821Z,101936.60
2019-01-02T06:28:36.021Z,101933.48
2019-01-02T06:31:04.252Z,101943.53
2019-01-02T06:33:32.448Z,101940.30
2019-01-02T06:36:00.667Z,101946.98
2019-01-02T06:38:29.038Z,101944.27
2019-01-02T06:40:57.276Z,101952.44
2019-01-02T06:43:25.470Z,101947.11
2019-01-02T06:45:53.664Z,101939.81
2019-01-02T06:48:21.882Z,101939.81
2019-01-02T06:50:50.074Z,101938.45
2019-01-02T06:53:18.304Z,101948.34
2019-01-02T06:55:46.549Z,101965.09
2019-01-02T06:58:14.752Z,101956.03
2019-01-02T07:00:42.954Z,101971.02
2019-01-02T07:03:11.178Z,101969.66
2019-01-02T07:05:39.409Z,101969.18
2019-01-02T07:08:07.640Z,101972.87
2019-01-02T07:10:35.846Z,101980.08
2019-01-02T07:13:04.083Z,101990.98
2019-01-02T07:15:32.294Z,101974.87
2019-01-02T07:18:00.507Z,101977.59
2019-01-02T07:20:28.727Z,101982.53
2019-01-02T07:22:56.928Z,101994.30
2019-01-02T07:25:25.152Z,101999.64
2019-01-02T07:27:53.391Z,102001.48
2019-01-02T07:30:22.629Z,102014.73
2019-01-02T07:32:50.867Z,102014.26
2019-01-02T07:35:34.209Z,102024.04
2019-01-02T07:38:05.700Z,102025.40
2019-01-02T07:40:40.250Z,102029.48
2019-01-02T07:43:14.606Z,102033.09
2019-01-02T07:45:58.084Z,102032.61
2019-01-02T07:48:47.792Z,102032.33
2019-01-02T07:51:24.794Z,102029.37
2019-01-02T07:54:21.832Z,102024.04
2019-01-02T07:57:04.993Z,102029.48
2019-01-02T07:59:51.860Z,102032.61
2019-01-02T08:02:46.199Z,102031.25
2019-01-02T08:05:20.634Z,102033.21
2019-01-02T08:07:57.910Z,102025.92
2019-01-02T08:10:50.338Z,102030.48
2019-01-02T08:13:36.914Z,102026.64
2019-01-02T08:16:14.353Z,102035.33
2019-01-02T08:19:02.317Z,102031.85
2019-01-02T08:21:39.469Z,102040.39
2019-01-02T08:24:16.709Z,102036.18
2019-01-02T08:27:02.985Z,102040.27
2019-01-02T08:29:40.268Z,102040.02
2019-01-02T08:32:11.735Z,102039.02
2019-01-02T08:35:01.700Z,102049.44
2019-01-02T08:37:45.321Z,102054.41
2019-01-02T08:40:37.822Z,102062.95
2019-01-02T08:43:12.154Z,102071.13
2019-01-02T08:45:55.313Z,102071.61
2019-01-02T08:48:46.534Z,102070.76
2019-01-02T08:51:41.848Z,102065.19
2019-01-02T08:54:35.312Z,102065.67
2019-01-02T08:57:09.681Z,102068.77
2019-01-02T08:59:57.611Z,102082.39
2019-01-02T09:02:34.832Z,102090.95
2019-01-02T09:05:08.830Z,102087.23
2019-01-02T09:07:57.013Z,102093.69
2019-01-02T09:10:37.345Z,102094.28
2019-01-02T09:13:14.529Z,102099.13
2019-01-02T09:15:57.915Z,102104.59
2019-01-02T09:18:58.283Z,102104.19
2019-01-02T09:21:47.866Z,102102.83
2019-01-02T09:24:34.149Z,102099.13
2019-01-02T09:27:08.518Z,102104.59
2019-01-02T09:30:13.677Z,102114.72
2019-01-02T09:32:50.931Z,102112.36
2019-01-02T09:35:56.015Z,102111.88
2019-01-02T09:38:47.144Z,102117.81
2019-01-02T09:41:27.533Z,102109.64
2019-01-02T09:44:10.593Z,102099.73
2019-01-02T09:46:47.247Z,102101.46
2019-01-02T09:49:39.103Z,102111.77
2019-01-02T09:52:30.717Z,102107.44
2019-01-02T09:55:17.370Z,102111.89
2019-01-02T09:58:05.740Z,102112.66
2019-01-02T10:01:08.841Z,102113.91
2019-01-02T10:06:42.816Z,102102.88
2019-01-02T10:09:20.249Z,102105.13
2019-01-02T10:12:13.203Z,102103.12
2019-01-02T10:14:53.725Z,102101.28
2019-01-02T10:17:30.339Z,102104.41
2019-01-02T10:20:19.572Z,102103.04
2019-01-02T10:23:02.865Z,102102.05
2019-01-02T10:26:09.227Z,102098.32
2019-01-02T10:29:03.131Z,102091.39
2019-01-02T10:31:43.594Z,102080.36
2019-01-02T10:34:33.254Z,102090.30
2019-01-02T10:37:07.559Z,102079.28
2019-01-02T10:40:07.719Z,102078.88
2019-01-02T10:42:54.297Z,102088.70
2019-01-02T10:45:44.175Z,102093.91
2019-01-02T10:48:30.426Z,102095.16
2019-01-02T10:51:10.446Z,102087.70
2019-01-02T10:53:47.735Z,102070.86
2019-01-02T10:56:28.365Z,102083.12
2019-01-02T10:58:59.839Z,102071.63
2019-01-02T11:01:46.145Z,102078.92
2019-01-02T11:04:29.776Z,102061.32
2019-01-02T11:07:31.843Z,102065.41
2019-01-02T11:10:21.290Z,102070.50
2019-01-02T11:13:04.855Z,102091.43
2019-01-02T11:16:05.117Z,102098.36
2019-01-02T11:19:03.973Z,102102.45
2019-01-02T11:21:47.363Z,102099.36
2019-01-02T11:24:30.532Z,102110.27
2019-01-02T11:27:36.869Z,102118.45
2019-01-02T11:30:08.315Z,102112.23
2019-01-02T11:32:42.445Z,102108.27
2019-01-02T11:35:36.232Z,102104.66
2019-01-02T11:38:13.414Z,102102.81
2019-01-02T11:41:19.600Z,102096.36
2019-01-02T11:44:23.133Z,102095.52
2019-01-02T11:46:51.367Z,102097.36
2019-01-02T11:49:19.568Z,102099.60
2019-01-02T11:51:47.776Z,102093.27
2019-01-02T11:54:15.995Z,102095.11
2019-01-02T11:56:44.214Z,102092.91
2019-01-02T11:59:12.434Z,102095.52
2019-01-02T12:01:40.630Z,102084.22
2019-01-02T12:04:08.869Z,102081.13
2019-01-02T12:06:37.066Z,102082.84
2019-01-02T12:09:07.108Z,102075.67
2019-01-02T12:11:35.326Z,102073.31
2019-01-02T12:14:03.536Z,102071.10
2019-01-02T12:16:31.752Z,102072.83
2019-01-02T12:18:59.961Z,102069.22
2019-01-02T12:21:28.198Z,102070.98
2019-01-02T12:23:56.407Z,102069.62
2019-01-02T12:26:24.614Z,102076.43
2019-01-02T12:28:52.828Z,102077.80
2019-01-02T12:31:21.070Z,102064.16
2019-01-02T12:33:49.272Z,102074.95
2019-01-02T12:36:17.488Z,102072.70
2019-01-02T12:38:45.694Z,102076.80
2019-01-02T12:41:13.944Z,102079.88
2019-01-02T12:43:42.718Z,102070.86
2019-01-02T12:46:10.918Z,102079.88
2019-01-02T12:48:39.116Z,102073.47
2019-01-02T12:51:07.354Z,102077.55
2019-01-02T12:53:35.559Z,102073.95
2019-01-02T12:56:03.764Z,102078.52
2019-01-02T12:58:32.001Z,102067.25
2019-01-02T13:01:01.445Z,102064.05
2019-01-02T13:03:50.592Z,102073.19
2019-01-02T13:06:57.566Z,102064.16
2019-01-02T13:09:31.910Z,102071.34
2019-01-02T13:12:18.492Z,102078.16
2019-01-02T13:14:49.968Z,102084.48
2019-01-02T13:17:30.034Z,102086.34
2019-01-02T13:20:22.747Z,102092.16
2019-01-02T13:23:09.503Z,102094.87
2019-01-02T13:25:49.646Z,102105.78
2019-01-02T13:28:23.800Z,102098.97
2019-01-02T13:31:13.447Z,102104.42
2019-01-02T13:33:53.642Z,102117.94
2019-01-02T13:36:25.132Z,102113.48
2019-01-02T13:38:59.419Z,102115.33
2019-01-02T13:41:48.942Z,102125.27
2019-01-02T13:44:50.353Z,102118.05
2019-01-02T13:47:40.974Z,102122.14
2019-01-02T13:50:29.544Z,102120.30
2019-01-02T13:52:59.286Z,102108.51
2019-01-02T13:55:27.535Z,102121.77
2019-01-02T13:57:55.743Z,102120.78
2019-01-02T14:00:23.972Z,102128.95
2019-01-02T14:02:52.220Z,102128.59
2019-01-02T14:05:22.565Z,102127.23
2019-01-02T14:07:50.772Z,102124.87
2019-01-02T14:10:19.007Z,102131.68
2019-01-02T14:12:47.203Z,102126.75
2019-01-02T14:15:15.430Z,102130.31
2019-01-02T14:17:43.654Z,102138.89
2019-01-02T14:20:11.873Z,102144.83
2019-01-02T14:22:40.080Z,102145.31
2019-01-02T14:25:08.312Z,102141.73
2019-01-02T14:27:36.514Z,102145.70
2019-01-02T14:30:07.674Z,102146.56
2019-01-02T14:32:35.896Z,102150.28
2019-01-02T14:35:04.691Z,102154.38
2019-01-02T14:37:32.901Z,102151.65
2019-01-02T14:40:01.116Z,102151.16
2019-01-02T14:42:29.349Z,102148.44
2019-01-02T14:44:57.583Z,102156.22
2019-01-02T14:47:25.823Z,102165.77
2019-01-02T14:49:54.017Z,102169.84
2019-01-02T14:52:22.243Z,102174.45
2019-01-02T14:54:50.449Z,102176.30
2019-01-02T14:57:18.676Z,102183.48
2019-01-02T14:59:46.905Z,102183.88
2019-01-02T15:02:15.142Z,102189.33
2019-01-02T15:04:43.366Z,102177.66
2019-01-02T15:07:11.571Z,102185.72
2019-01-02T15:09:39.785Z,102188.94
2019-01-02T15:12:07.987Z,102198.99
2019-01-02T15:14:36.212Z,102193.14
2019-01-02T15:17:04.435Z,102203.92
2019-01-02T15:19:32.682Z,102197.74
2019-01-02T15:22:04.892Z,102198.11
2019-01-02T15:24:30.807Z,102205.41
2019-01-02T15:26:59.022Z,102210.02
2019-01-02T15:29:27.234Z,102210.02
2019-01-02T15:31:55.441Z,102209.89
2019-01-02T15:34:23.657Z,102217.67
2019-01-02T15:36:51.877Z,102217.67
2019-01-02T15:39:20.081Z,102217.19
2019-01-02T15:41:48.325Z,102218.19
2019-01-02T15:44:16.541Z,102229.94
2019-01-02T15:46:44.774Z,102226.25
2019-01-02T15:49:12.985Z,102233.19
2019-01-02T15:51:41.217Z,102229.94
2019-01-02T15:54:09.423Z,102232.78
2019-01-02T15:56:37.621Z,102235.03
2019-01-02T15:59:05.845Z,102243.58
2019-01-02T16:01:34.077Z,102247.19
2019-01-02T16:04:02.320Z,102240.84
2019-01-02T16:06:30.512Z,102247.19
2019-01-02T16:08:58.742Z,102248.55
2019-01-02T16:11:26.952Z,102258.45
2019-01-02T16:13:55.153Z,102264.53
2019-01-02T16:16:23.376Z,102267.27
2019-01-02T16:18:51.603Z,102274.19
2019-01-02T16:21:19.842Z,102282.62
2019-01-02T16:23:48.043Z,102281.26
2019-01-02T16:26:16.261Z,102284.98
2019-01-02T16:28:44.487Z,102284.87
2019-01-02T16:31:12.690Z,102289.80
2019-01-02T16:33:40.904Z,102294.41
2019-01-02T16:36:09.107Z,102293.41
2019-01-02T16:38:37.334Z,102294.41
2019-01-02T16:41:05.554Z,102297.02
2019-01-02T16:43:33.755Z,102301.70
2019-01-02T16:46:01.971Z,102303.84
2019-01-02T16:48:30.185Z,102308.89
2019-01-02T16:50:58.417Z,102310.77
2019-01-02T16:53:26.635Z,102316.11
2019-01-02T16:55:54.859Z,102318.43
2019-01-02T16:58:23.100Z,102313.49
2019-01-02T17:00:51.314Z,102319.43
2019-01-02T17:03:19.532Z,102321.16
2019-01-02T17:05:47.743Z,102321.27
2019-01-02T17:08:15.966Z,102329.34
2019-01-02T17:10:44.194Z,102334.31
2019-01-02T17:13:12.415Z,102337.14
2019-01-02T17:15:40.646Z,102336.67
2019-01-02T17:18:08.858Z,102337.03
2019-01-02T17:20:37.092Z,102337.92
2019-01-02T17:23:05.322Z,102340.24
2019-01-02T17:25:33.526Z,102343.48
2019-01-02T17:28:01.770Z,102345.69
2019-01-02T17:30:29.972Z,102345.22
2019-01-02T17:32:58.178Z,102344.84
2019-01-02T17:35:26.397Z,102347.05
2019-01-02T17:37:54.615Z,102352.40
2019-01-02T17:40:22.838Z,102354.28
2019-01-02T17:42:51.054Z,102360.58
2019-01-02T17:45:19.301Z,102358.73
2019-01-02T17:47:47.493Z,102365.55
2019-01-02T17:50:15.699Z,102366.55
2019-01-02T17:52:43.926Z,102367.39
2019-01-02T17:55:12.147Z,102366.14
2019-01-02T17:57:40.334Z,102364.30
2019-01-02T18:00:10.497Z,102371.59
2019-01-02T18:02:38.730Z,102366.14
2019-01-02T18:05:06.931Z,102371.00
2019-01-02T18:07:35.170Z,102373.73
2019-01-02T18:10:03.942Z,102387.36
2019-01-02T18:12:32.166Z,102380.55
2019-01-02T18:15:00.376Z,102386.36
2019-01-02T18:17:28.605Z,102387.73
2019-01-02T18:19:56.850Z,102387.36
2019-01-02T18:22:25.053Z,102378.59
2019-01-02T18:24:53.291Z,102386.36
2019-01-02T18:27:21.523Z,102381.80
2019-01-02T18:29:49.740Z,102386.88
2019-01-02T18:32:17.973Z,102387.25
2019-01-02T18:34:46.173Z,102392.70
2019-01-02T18:37:14.372Z,102392.22
2019-01-02T18:39:42.593Z,102388.24
2019-01-02T18:42:10.795Z,102393.19
2019-01-02T18:44:39.042Z,102390.86
2019-01-02T18:47:07.238Z,102401.77
2019-01-02T18:49:35.483Z,102406.22
2019-01-02T18:52:03.686Z,102405.34
2019-01-02T18:54:31.883Z,102402.13
2019-01-02T18:57:00.117Z,102413.03
2019-01-02T18:59:28.330Z,102413.03
2019-01-02T19:01:56.564Z,102410.72
2019-01-02T19:04:24.784Z,102414.40
2019-01-02T19:06:53.065Z,102416.25
2019-01-02T19:09:21.221Z,102420.26
2019-01-02T19:11:49.445Z,102423.46
2019-01-02T19:14:17.698Z,102428.44
2019-01-02T19:16:45.947Z,102424.72
2019-01-02T19:19:14.117Z,102433.89
2019-01-02T19:21:42.335Z,102435.25
2019-01-02T19:24:10.543Z,102436.62
2019-01-02T19:26:38.773Z,102436.98
2019-01-02T19:29:06.972Z,102436.98
2019-01-02T19:31:35.222Z,102441.55
2019-01-02T19:34:03.426Z,102439.71
2019-01-02T19:36:31.641Z,102439.34
2019-01-02T19:38:59.847Z,102447.41
2019-01-02T19:41:28.093Z,102446.53
2019-01-02T19:43:56.289Z,102451.98
2019-01-02T19:46:24.513Z,102451.50
2019-01-02T19:48:52.716Z,102451.98
2019-01-02T19:51:20.937Z,102454.70
2019-01-02T19:53:49.141Z,102454.23
2019-01-02T19:56:17.377Z,102452.35
2019-01-02T19:58:45.604Z,102462.41
2019-01-02T20:01:14.780Z,102460.53
2019-01-02T20:03:42.996Z,102459.69
2019-01-02T20:06:11.205Z,102474.56
2019-01-02T20:08:39.452Z,102471.06
2019-01-02T20:11:07.671Z,102471.06
2019-01-02T20:13:35.870Z,102472.80
2019-01-02T20:16:04.094Z,102472.80
2019-01-02T20:18:32.300Z,102472.44
2019-01-02T20:21:00.531Z,102473.80
2019-01-02T20:23:28.759Z,102465.62
2019-01-02T20:25:56.956Z,102477.41
2019-01-02T20:28:25.185Z,102471.06
2019-01-02T20:30:53.389Z,102473.80
2019-01-02T20:33:21.617Z,102471.06
2019-01-02T20:35:49.845Z,102475.42
2019-01-02T20:38:18.043Z,102475.42
2019-01-02T20:40:46.277Z,102470.08
2019-01-02T20:43:15.696Z,102469.59
2019-01-02T20:45:43.999Z,102469.97
2019-01-02T20:48:12.224Z,102468.23
2019-01-02T20:50:40.431Z,102470.37
2019-01-02T20:53:08.664Z,102471.84
2019-01-02T20:55:36.879Z,102462.30
2019-01-02T20:58:05.077Z,102465.39
2019-01-02T21:00:33.284Z,102462.67
2019-01-02T21:03:01.508Z,102459.94
2019-01-02T21:05:29.723Z,102460.42
2019-01-02T21:07:57.925Z,102469.97
2019-01-02T21:10:26.148Z,102462.67
2019-01-02T21:12:54.392Z,102455.85
2019-01-02T21:15:22.605Z,102461.78
2019-01-02T21:17:50.817Z,102464.51
2019-01-02T21:20:19.046Z,102464.40
2019-01-02T21:22:47.241Z,102456.84
2019-01-02T21:25:15.472Z,102467.13
2019-01-02T21:27:43.668Z,102466.28
2019-01-02T21:30:11.912Z,102463.04
2019-01-02T21:32:40.115Z,102467.13
2019-01-02T21:35:08.353Z,102468.01
2019-01-02T21:37:36.574Z,102470.73
2019-01-02T21:40:06.518Z,102469.86
2019-01-02T21:42:34.732Z,102462.67
2019-01-02T21:45:02.984Z,102464.03
2019-01-02T21:47:31.223Z,102472.22
2019-01-02T21:49:59.393Z,102469.97
2019-01-02T21:52:27.630Z,102476.19
2019-01-02T21:54:55.819Z,102479.80
2019-01-02T21:57:24.042Z,102474.45
2019-01-02T21:59:52.248Z,102475.82
2019-01-02T22:02:20.486Z,102472.58
2019-01-02T22:04:48.716Z,102476.67
2019-01-02T22:07:16.931Z,102478.03
2019-01-02T22:09:45.156Z,102474.94
2019-01-02T22:12:13.384Z,102482.13
2019-01-02T22:14:41.583Z,102485.25
2019-01-02T22:17:09.809Z,102485.73
2019-01-02T22:19:38.034Z,102489.72
2019-01-02T22:22:06.275Z,102493.44
2019-01-02T22:24:34.508Z,102491.19
2019-01-02T22:27:02.710Z,102493.03
2019-01-02T22:29:30.928Z,102494.40
2019-01-02T22:31:59.117Z,102492.66
2019-01-02T22:34:27.340Z,102495.39
2019-01-02T22:36:55.542Z,102502.69
2019-01-02T22:39:23.783Z,102503.57
2019-01-02T22:41:52.023Z,102506.67
2019-01-02T22:44:20.222Z,102508.91
2019-01-02T22:46:48.449Z,102513.48
2019-01-02T22:49:16.638Z,102508.55
2019-01-02T22:51:44.879Z,102509.39
2019-01-02T22:54:13.079Z,102504.45
2019-01-02T22:56:41.286Z,102511.75
2019-01-02T22:59:09.491Z,102509.91
2019-01-02T23:01:39.357Z,102513.01
2019-01-02T23:04:21.473Z,102524.39
2019-01-02T23:07:07.579Z,102522.66
2019-01-02T23:09:43.684Z,102521.30
2019-01-02T23:12:16.501Z,102525.39
2019-01-02T23:14:49.078Z,102527.74
2019-01-02T23:17:18.921Z,102522.77
2019-01-02T23:19:57.862Z,102533.20
2019-01-02T23:22:27.718Z,102532.42
2019-01-02T23:25:13.682Z,102539.61
2019-01-02T23:27:55.078Z,102548.41
2019-01-02T23:30:41.123Z,102543.70
2019-01-02T23:33:13.957Z,102555.60
2019-01-02T23:35:46.593Z,102556.08
2019-01-02T23:38:32.573Z,102558.33
2019-01-02T23:41:17.650Z,102559.21
2019-01-02T23:44:04.003Z,102570.59
2019-01-02T23:46:33.861Z,102572.44
2019-01-02T23:49:03.736Z,102571.96
2019-01-02T23:51:48.678Z,102577.41
2019-01-02T23:54:36.549Z,102582.50
2019-01-02T23:57:09.196Z,102581.51
2019-01-02T23:59:39.042Z,102585.97
